sensor_id;sensor_type;location;lat;lon;timestamp;pressure;altitude;pressure_sealevel;temperature
85840;BMP280;76322;54.686;9.332;2024-02-21T16:52:29;100335.59;;;9.43
85840;BMP280;76322;54.686;9.332;2024-02-21T16:53:33;100336.81;;;9.42
85840;BMP280;76322;54.686;9.332;2024-02-21T16:54:34;100328.63;;;9.42
85840;BMP280;76322;54.686;9.332;2024-02-21T16:55:36;100321.22;;;9.42
85840;BMP280;76322;54.686;9.332;2024-02-21T16:56:38;100313.53;;;9.41
85840;BMP280;76322;54.686;9.332;2024-02-21T16:57:39;100318.97;;;9.41
85840;BMP280;76322;54.686;9.332;2024-02-21T16:58:41;100321.69;;;9.41
85840;BMP280;76322;54.686;9.332;2024-02-21T16:59:43;100318.22;;;9.40
85840;BMP280;76322;54.686;9.332;2024-02-21T17:00:45;100314.00;;;9.39
85840;BMP280;76322;54.686;9.332;2024-02-21T17:01:48;100306.59;;;9.40
85840;BMP280;76322;54.686;9.332;2024-02-21T17:02:53;100315.94;;;9.39
85840;BMP280;76322;54.686;9.332;2024-02-21T17:04:00;100305.06;;;9.39
85840;BMP280;76322;54.686;9.332;2024-02-21T17:05:02;100305.06;;;9.39
85840;BMP280;76322;54.686;9.332;2024-02-21T17:06:05;100309.00;;;9.38
85840;BMP280;76322;54.686;9.332;2024-02-21T17:07:17;100297.38;;;9.37
85840;BMP280;76322;54.686;9.332;2024-02-21T17:08:20;100293.13;;;9.36
85840;BMP280;76322;54.686;9.332;2024-02-21T17:09:22;100293.13;;;9.36
85840;BMP280;76322;54.686;9.332;2024-02-21T17:10:24;100288.94;;;9.35
85840;BMP280;76322;54.686;9.332;2024-02-21T17:11:25;100286.69;;;9.34
85840;BMP280;76322;54.686;9.332;2024-02-21T17:12:27;100282.75;;;9.35
85840;BMP280;76322;54.686;9.332;2024-02-21T17:13:29;100280.50;;;9.33
85840;BMP280;76322;54.686;9.332;2024-02-21T17:14:35;100279.72;;;9.33
85840;BMP280;76322;54.686;9.332;2024-02-21T17:15:36;100280.94;;;9.32
85840;BMP280;76322;54.686;9.332;2024-02-21T17:16:38;100280.94;;;9.32
85840;BMP280;76322;54.686;9.332;2024-02-21T17:17:40;100265.09;;;9.30
85840;BMP280;76322;54.686;9.332;2024-02-21T17:18:41;100268.56;;;9.31
85840;BMP280;76322;54.686;9.332;2024-02-21T17:19:43;100269.34;;;9.31
85840;BMP280;76322;54.686;9.332;2024-02-21T17:20:45;100262.38;;;9.30
85840;BMP280;76322;54.686;9.332;2024-02-21T17:21:49;100253.47;;;9.30
85840;BMP280;76322;54.686;9.332;2024-02-21T17:22:51;100260.88;;;9.29
85840;BMP280;76322;54.686;9.332;2024-02-21T17:23:54;100257.38;;;9.29
85840;BMP280;76322;54.686;9.332;2024-02-21T17:24:56;100249.69;;;9.27
85840;BMP280;76322;54.686;9.332;2024-02-21T17:25:58;100252.91;;;9.26
85840;BMP280;76322;54.686;9.332;2024-02-21T17:27:00;100254.38;;;9.27
85840;BMP280;76322;54.686;9.332;2024-02-21T17:28:02;100254.88;;;9.25
85840;BMP280;76322;54.686;9.332;2024-02-21T17:29:05;100247.44;;;9.26
85840;BMP280;76322;54.686;9.332;2024-02-21T17:30:07;100247.44;;;9.26
85840;BMP280;76322;54.686;9.332;2024-02-21T17:31:10;100246.72;;;9.25
85840;BMP280;76322;54.686;9.332;2024-02-21T17:32:12;100254.59;;;9.23
85840;BMP280;76322;54.686;9.332;2024-02-21T17:33:14;100256.53;;;9.23
85840;BMP280;76322;54.686;9.332;2024-02-21T17:34:16;100251.09;;;9.23
85840;BMP280;76322;54.686;9.332;2024-02-21T17:35:18;100250.38;;;9.22
85840;BMP280;76322;54.686;9.332;2024-02-21T17:36:20;100242.66;;;9.21
85840;BMP280;76322;54.686;9.332;2024-02-21T17:37:21;100237.22;;;9.21
85840;BMP280;76322;54.686;9.332;2024-02-21T17:38:23;100244.16;;;9.22
85840;BMP280;76322;54.686;9.332;2024-02-21T17:39:27;100237.97;;;9.21
85840;BMP280;76322;54.686;9.332;2024-02-21T17:40:29;100232.53;;;9.21
85840;BMP280;76322;54.686;9.332;2024-02-21T17:41:31;100233.00;;;9.20
85840;BMP280;76322;54.686;9.332;2024-02-21T17:42:36;100231.47;;;9.19
85840;BMP280;76322;54.686;9.332;2024-02-21T17:43:38;100221.38;;;9.19
85840;BMP280;76322;54.686;9.332;2024-02-21T17:44:40;100228.75;;;9.19
85840;BMP280;76322;54.686;9.332;2024-02-21T17:45:44;100221.81;;;9.18
85840;BMP280;76322;54.686;9.332;2024-02-21T17:46:45;100220.34;;;9.17
85840;BMP280;76322;54.686;9.332;2024-02-21T17:47:47;100212.19;;;9.17
85840;BMP280;76322;54.686;9.332;2024-02-21T17:48:49;100211.44;;;9.16
85840;BMP280;76322;54.686;9.332;2024-02-21T17:49:51;100208.72;;;9.16
85840;BMP280;76322;54.686;9.332;2024-02-21T17:50:53;100203.75;;;9.15
85840;BMP280;76322;54.686;9.332;2024-02-21T17:51:56;100202.97;;;9.14
85840;BMP280;76322;54.686;9.332;2024-02-21T17:52:58;100202.25;;;9.14
85840;BMP280;76322;54.686;9.332;2024-02-21T17:54:01;100210.41;;;9.14
85840;BMP280;76322;54.686;9.332;2024-02-21T17:55:04;100192.09;;;9.14
85840;BMP280;76322;54.686;9.332;2024-02-21T17:56:07;100192.56;;;9.13
85840;BMP280;76322;54.686;9.332;2024-02-21T17:57:10;100189.84;;;9.13
85840;BMP280;76322;54.686;9.332;2024-02-21T17:58:12;100199.22;;;9.12
85840;BMP280;76322;54.686;9.332;2024-02-21T17:59:14;100200.44;;;9.11
85840;BMP280;76322;54.686;9.332;2024-02-21T18:00:16;100189.56;;;9.11
85840;BMP280;76322;54.686;9.332;2024-02-21T18:01:18;100177.91;;;9.10
85840;BMP280;76322;54.686;9.332;2024-02-21T18:02:30;100181.41;;;9.11
85840;BMP280;76322;54.686;9.332;2024-02-21T18:03:32;100181.41;;;9.11
85840;BMP280;76322;54.686;9.332;2024-02-21T18:04:35;100187.31;;;9.09
85840;BMP280;76322;54.686;9.332;2024-02-21T18:05:37;100181.59;;;9.07
85840;BMP280;76322;54.686;9.332;2024-02-21T18:06:40;100171.94;;;9.06
85840;BMP280;76322;54.686;9.332;2024-02-21T18:07:43;100169.22;;;9.06
85840;BMP280;76322;54.686;9.332;2024-02-21T18:08:45;100168.47;;;9.06
85840;BMP280;76322;54.686;9.332;2024-02-21T18:09:47;100173.91;;;9.06
85840;BMP280;76322;54.686;9.332;2024-02-21T18:10:52;100166.97;;;9.05
85840;BMP280;76322;54.686;9.332;2024-02-21T18:11:54;100167.72;;;9.05
85840;BMP280;76322;54.686;9.332;2024-02-21T18:13:00;100161.53;;;9.05
85840;BMP280;76322;54.686;9.332;2024-02-21T18:14:05;100162.75;;;9.04
85840;BMP280;76322;54.686;9.332;2024-02-21T18:15:09;100162.75;;;9.04
85840;BMP280;76322;54.686;9.332;2024-02-21T18:16:14;100157.31;;;9.04
85840;BMP280;76322;54.686;9.332;2024-02-21T18:17:17;100155.31;;;9.04
85840;BMP280;76322;54.686;9.332;2024-02-21T18:18:19;100144.91;;;9.03
85840;BMP280;76322;54.686;9.332;2024-02-21T18:19:20;100150.34;;;9.03
85840;BMP280;76322;54.686;9.332;2024-02-21T18:20:23;100152.34;;;9.02
85840;BMP280;76322;54.686;9.332;2024-02-21T18:21:25;100145.09;;;8.99
85840;BMP280;76322;54.686;9.332;2024-02-21T18:22:28;100138.44;;;9.00
85840;BMP280;76322;54.686;9.332;2024-02-21T18:23:30;100133.47;;;8.99
85840;BMP280;76322;54.686;9.332;2024-02-21T18:24:31;100132.22;;;9.00
85840;BMP280;76322;54.686;9.332;2024-02-21T18:25:33;100128.03;;;8.99
85840;BMP280;76322;54.686;9.332;2024-02-21T18:26:34;100128.03;;;8.99
85840;BMP280;76322;54.686;9.332;2024-02-21T18:27:36;100130.75;;;8.99
85840;BMP280;76322;54.686;9.332;2024-02-21T18:28:37;100123.34;;;8.99
85840;BMP280;76322;54.686;9.332;2024-02-21T18:29:39;100121.84;;;8.98
85840;BMP280;76322;54.686;9.332;2024-02-21T18:30:43;100119.13;;;8.98
85840;BMP280;76322;54.686;9.332;2024-02-21T18:31:44;100114.19;;;8.97
85840;BMP280;76322;54.686;9.332;2024-02-21T18:32:47;100117.63;;;8.97
85840;BMP280;76322;54.686;9.332;2024-02-21T18:33:51;100105.72;;;8.95
85840;BMP280;76322;54.686;9.332;2024-02-21T18:34:52;100110.25;;;8.98
85840;BMP280;76322;54.686;9.332;2024-02-21T18:35:54;100101.78;;;8.96
85840;BMP280;76322;54.686;9.332;2024-02-21T18:36:56;100103.00;;;8.95
85840;BMP280;76322;54.686;9.332;2024-02-21T18:37:58;100095.59;;;8.95
85840;BMP280;76322;54.686;9.332;2024-02-21T18:38:59;100094.84;;;8.95
85840;BMP280;76322;54.686;9.332;2024-02-21T18:40:01;100097.56;;;8.95
85840;BMP280;76322;54.686;9.332;2024-02-21T18:41:02;100087.91;;;8.94
85840;BMP280;76322;54.686;9.332;2024-02-21T18:42:04;100089.13;;;8.93
85840;BMP280;76322;54.686;9.332;2024-02-21T18:43:08;100089.13;;;8.93
85840;BMP280;76322;54.686;9.332;2024-02-21T18:44:10;100084.13;;;8.91
85840;BMP280;76322;54.686;9.332;2024-02-21T18:45:13;100091.84;;;8.93
85840;BMP280;76322;54.686;9.332;2024-02-21T18:46:16;100077.97;;;8.91
85840;BMP280;76322;54.686;9.332;2024-02-21T18:47:18;100086.13;;;8.91
85840;BMP280;76322;54.686;9.332;2024-02-21T18:48:21;100086.13;;;8.91
85840;BMP280;76322;54.686;9.332;2024-02-21T18:49:23;100090.81;;;8.90
85840;BMP280;76322;54.686;9.332;2024-02-21T18:50:24;100083.91;;;8.89
85840;BMP280;76322;54.686;9.332;2024-02-21T18:51:26;100083.13;;;8.89
85840;BMP280;76322;54.686;9.332;2024-02-21T18:52:28;100080.88;;;8.87
85840;BMP280;76322;54.686;9.332;2024-02-21T18:53:29;100081.66;;;8.88
85840;BMP280;76322;54.686;9.332;2024-02-21T18:54:31;100068.03;;;8.88
85840;BMP280;76322;54.686;9.332;2024-02-21T18:55:32;100073.19;;;8.86
85840;BMP280;76322;54.686;9.332;2024-02-21T18:56:34;100071.97;;;8.87
85840;BMP280;76322;54.686;9.332;2024-02-21T18:57:37;100068.50;;;8.86
85840;BMP280;76322;54.686;9.332;2024-02-21T18:58:38;100065.03;;;8.86
85840;BMP280;76322;54.686;9.332;2024-02-21T18:59:40;100065.34;;;8.88
85840;BMP280;76322;54.686;9.332;2024-02-21T19:00:41;100053.41;;;8.85
85840;BMP280;76322;54.686;9.332;2024-02-21T19:01:43;100062.31;;;8.86
85840;BMP280;76322;54.686;9.332;2024-02-21T19:02:44;100055.38;;;8.85
85840;BMP280;76322;54.686;9.332;2024-02-21T19:03:48;100054.63;;;8.84
85840;BMP280;76322;54.686;9.332;2024-02-21T19:04:49;100051.91;;;8.84
85840;BMP280;76322;54.686;9.332;2024-02-21T19:05:51;100044.22;;;8.83
85840;BMP280;76322;54.686;9.332;2024-02-21T19:06:53;100042.72;;;8.82
85840;BMP280;76322;54.686;9.332;2024-02-21T19:07:56;100048.91;;;8.82
85840;BMP280;76322;54.686;9.332;2024-02-21T19:08:57;100048.16;;;8.82
85840;BMP280;76322;54.686;9.332;2024-02-21T19:09:59;100037.28;;;8.82
85840;BMP280;76322;54.686;9.332;2024-02-21T19:11:01;100041.22;;;8.81
85840;BMP280;76322;54.686;9.332;2024-02-21T19:12:03;100038.50;;;8.81
85840;BMP280;76322;54.686;9.332;2024-02-21T19:13:05;100030.84;;;8.79
85840;BMP280;76322;54.686;9.332;2024-02-21T19:14:06;100026.59;;;8.78
85840;BMP280;76322;54.686;9.332;2024-02-21T19:15:08;100027.06;;;8.77
85840;BMP280;76322;54.686;9.332;2024-02-21T19:16:11;100031.78;;;8.76
85840;BMP280;76322;54.686;9.332;2024-02-21T19:17:13;100035.22;;;8.77
85840;BMP280;76322;54.686;9.332;2024-02-21T19:18:14;100029.78;;;8.77
85840;BMP280;76322;54.686;9.332;2024-02-21T19:19:16;100033.25;;;8.77
85840;BMP280;76322;54.686;9.332;2024-02-21T19:20:18;100036.44;;;8.76
85840;BMP280;76322;54.686;9.332;2024-02-21T19:21:20;100026.34;;;8.76
85840;BMP280;76322;54.686;9.332;2024-02-21T19:22:22;100026.34;;;8.76
85840;BMP280;76322;54.686;9.332;2024-02-21T19:23:26;100025.56;;;8.76
85840;BMP280;76322;54.686;9.332;2024-02-21T19:24:27;100024.06;;;8.75
85840;BMP280;76322;54.686;9.332;2024-02-21T19:25:29;100012.44;;;8.74
85840;BMP280;76322;54.686;9.332;2024-02-21T19:26:30;100012.91;;;8.73
85840;BMP280;76322;54.686;9.332;2024-02-21T19:27:32;100012.91;;;8.73
85840;BMP280;76322;54.686;9.332;2024-02-21T19:28:33;100007.47;;;8.73
85840;BMP280;76322;54.686;9.332;2024-02-21T19:29:37;100008.69;;;8.72
85840;BMP280;76322;54.686;9.332;2024-02-21T19:30:39;100001.75;;;8.71
85840;BMP280;76322;54.686;9.332;2024-02-21T19:31:40;100005.97;;;8.72
85840;BMP280;76322;54.686;9.332;2024-02-21T19:32:42;100007.94;;;8.71
85840;BMP280;76322;54.686;9.332;2024-02-21T19:33:43;99993.63;;;8.71
85840;BMP280;76322;54.686;9.332;2024-02-21T19:34:45;99996.34;;;8.71
85840;BMP280;76322;54.686;9.332;2024-02-21T19:35:47;100001.75;;;8.71
85840;BMP280;76322;54.686;9.332;2024-02-21T19:36:48;99998.03;;;8.68
85840;BMP280;76322;54.686;9.332;2024-02-21T19:37:50;99992.59;;;8.68
85840;BMP280;76322;54.686;9.332;2024-02-21T19:38:52;99987.59;;;8.67
85840;BMP280;76322;54.686;9.332;2024-02-21T19:39:53;99991.56;;;8.66
85840;BMP280;76322;54.686;9.332;2024-02-21T19:40:55;99988.84;;;8.66
85840;BMP280;76322;54.686;9.332;2024-02-21T19:41:56;99985.34;;;8.65
85840;BMP280;76322;54.686;9.332;2024-02-21T19:42:58;99988.06;;;8.65
85840;BMP280;76322;54.686;9.332;2024-02-21T19:44:00;99977.66;;;8.64
85840;BMP280;76322;54.686;9.332;2024-02-21T19:45:01;99976.19;;;8.63
85840;BMP280;76322;54.686;9.332;2024-02-21T19:46:05;99968.78;;;8.63
85840;BMP280;76322;54.686;9.332;2024-02-21T19:47:06;99980.38;;;8.64
85840;BMP280;76322;54.686;9.332;2024-02-21T19:48:08;99979.66;;;8.63
85840;BMP280;76322;54.686;9.332;2024-02-21T19:49:10;99966.53;;;8.62
85840;BMP280;76322;54.686;9.332;2024-02-21T19:50:11;99969.25;;;8.62
85840;BMP280;76322;54.686;9.332;2024-02-21T19:51:16;99968.47;;;8.61
85840;BMP280;76322;54.686;9.332;2024-02-21T19:52:18;99954.16;;;8.61
85840;BMP280;76322;54.686;9.332;2024-02-21T19:53:19;99961.09;;;8.62
85840;BMP280;76322;54.686;9.332;2024-02-21T19:54:21;99955.66;;;8.62
85840;BMP280;76322;54.686;9.332;2024-02-21T19:55:25;99958.38;;;8.62
85840;BMP280;76322;54.686;9.332;2024-02-21T19:56:28;99950.22;;;8.62
85840;BMP280;76322;54.686;9.332;2024-02-21T19:57:29;99948.72;;;8.61
85840;BMP280;76322;54.686;9.332;2024-02-21T19:58:31;99939.09;;;8.60
85840;BMP280;76322;54.686;9.332;2024-02-21T19:59:33;99930.94;;;8.60
85840;BMP280;76322;54.686;9.332;2024-02-21T20:00:37;99930.66;;;8.58
85840;BMP280;76322;54.686;9.332;2024-02-21T20:01:39;99932.16;;;8.59
85840;BMP280;76322;54.686;9.332;2024-02-21T20:02:43;99935.63;;;8.59
85840;BMP280;76322;54.686;9.332;2024-02-21T20:03:45;99926.44;;;8.57
85840;BMP280;76322;54.686;9.332;2024-02-21T20:04:47;99925.97;;;8.58
85840;BMP280;76322;54.686;9.332;2024-02-21T20:05:49;99927.19;;;8.57
85840;BMP280;76322;54.686;9.332;2024-02-21T20:06:51;99917.53;;;8.56
85840;BMP280;76322;54.686;9.332;2024-02-21T20:07:54;99912.56;;;8.55
85840;BMP280;76322;54.686;9.332;2024-02-21T20:08:55;99900.19;;;8.54
85840;BMP280;76322;54.686;9.332;2024-02-21T20:09:59;99899.44;;;8.53
85840;BMP280;76322;54.686;9.332;2024-02-21T20:11:01;99893.25;;;8.53
85840;BMP280;76322;54.686;9.332;2024-02-21T20:12:03;99902.63;;;8.52
85840;BMP280;76322;54.686;9.332;2024-02-21T20:13:05;99889.78;;;8.52
85840;BMP280;76322;54.686;9.332;2024-02-21T20:14:07;99904.88;;;8.53
85840;BMP280;76322;54.686;9.332;2024-02-21T20:15:09;99891.00;;;8.51
85840;BMP280;76322;54.686;9.332;2024-02-21T20:16:11;99889.03;;;8.52
85840;BMP280;76322;54.686;9.332;2024-02-21T20:17:13;99886.06;;;8.50
85840;BMP280;76322;54.686;9.332;2024-02-21T20:18:15;99888.06;;;8.49
85840;BMP280;76322;54.686;9.332;2024-02-21T20:19:17;99876.41;;;8.49
85840;BMP280;76322;54.686;9.332;2024-02-21T20:20:19;99877.91;;;8.50
85840;BMP280;76322;54.686;9.332;2024-02-21T20:21:20;99877.19;;;8.49
85840;BMP280;76322;54.686;9.332;2024-02-21T20:22:22;99869.03;;;8.49
85840;BMP280;76322;54.686;9.332;2024-02-21T20:23:23;99867.03;;;8.50
85840;BMP280;76322;54.686;9.332;2024-02-21T20:24:25;99863.31;;;8.47
85840;BMP280;76322;54.686;9.332;2024-02-21T20:25:41;99863.31;;;8.47
85840;BMP280;76322;54.686;9.332;2024-02-21T20:26:43;99858.34;;;8.46
85840;BMP280;76322;54.686;9.332;2024-02-21T20:27:46;99855.63;;;8.46
85840;BMP280;76322;54.686;9.332;2024-02-21T20:28:47;99849.44;;;8.45
85840;BMP280;76322;54.686;9.332;2024-02-21T20:29:49;99849.44;;;8.45
85840;BMP280;76322;54.686;9.332;2024-02-21T20:30:50;99847.47;;;8.46
85840;BMP280;76322;54.686;9.332;2024-02-21T20:31:53;99842.03;;;8.46
85840;BMP280;76322;54.686;9.332;2024-02-21T20:32:58;99843.25;;;8.45
85840;BMP280;76322;54.686;9.332;2024-02-21T20:34:00;99841.00;;;8.43
85840;BMP280;76322;54.686;9.332;2024-02-21T20:35:02;99839.50;;;8.42
85840;BMP280;76322;54.686;9.332;2024-02-21T20:36:05;99835.56;;;8.43
85840;BMP280;76322;54.686;9.332;2024-02-21T20:37:06;99833.59;;;8.44
85840;BMP280;76322;54.686;9.332;2024-02-21T20:38:12;99834.81;;;8.43
85840;BMP280;76322;54.686;9.332;2024-02-21T20:39:13;99838.75;;;8.42
85840;BMP280;76322;54.686;9.332;2024-02-21T20:40:16;99829.09;;;8.41
85840;BMP280;76322;54.686;9.332;2024-02-21T20:41:18;99831.81;;;8.41
85840;BMP280;76322;54.686;9.332;2024-02-21T20:42:20;99839.25;;;8.40
85840;BMP280;76322;54.686;9.332;2024-02-21T20:43:23;99829.31;;;8.37
85840;BMP280;76322;54.686;9.332;2024-02-21T20:44:25;99823.88;;;8.37
85840;BMP280;76322;54.686;9.332;2024-02-21T20:45:26;99821.63;;;8.36
85840;BMP280;76322;54.686;9.332;2024-02-21T20:46:28;99824.34;;;8.36
85840;BMP280;76322;54.686;9.332;2024-02-21T20:47:29;99814.25;;;8.36
85840;BMP280;76322;54.686;9.332;2024-02-21T20:48:31;99823.13;;;8.37
85840;BMP280;76322;54.686;9.332;2024-02-21T20:49:33;99822.88;;;8.35
85840;BMP280;76322;54.686;9.332;2024-02-21T20:50:35;99815.44;;;8.35
85840;BMP280;76322;54.686;9.332;2024-02-21T20:51:36;99815.44;;;8.35
85840;BMP280;76322;54.686;9.332;2024-02-21T20:52:38;99818.16;;;8.35
85840;BMP280;76322;54.686;9.332;2024-02-21T20:53:39;99815.44;;;8.35
85840;BMP280;76322;54.686;9.332;2024-02-21T20:54:41;99801.13;;;8.35
85840;BMP280;76322;54.686;9.332;2024-02-21T20:55:42;99800.66;;;8.36
85840;BMP280;76322;54.686;9.332;2024-02-21T20:56:44;99792.97;;;8.35
85840;BMP280;76322;54.686;9.332;2024-02-21T20:57:45;99790.25;;;8.35
85840;BMP280;76322;54.686;9.332;2024-02-21T20:58:47;99788.75;;;8.34
85840;BMP280;76322;54.686;9.332;2024-02-21T20:59:48;99785.28;;;8.33
85840;BMP280;76322;54.686;9.332;2024-02-21T21:00:50;99781.06;;;8.32
85840;BMP280;76322;54.686;9.332;2024-02-21T21:01:52;99779.88;;;8.33
85840;BMP280;76322;54.686;9.332;2024-02-21T21:03:04;99778.34;;;8.32
85840;BMP280;76322;54.686;9.332;2024-02-21T21:04:05;99788.00;;;8.33
85840;BMP280;76322;54.686;9.332;2024-02-21T21:05:07;99779.56;;;8.31
85840;BMP280;76322;54.686;9.332;2024-02-21T21:06:09;99782.78;;;8.30
85840;BMP280;76322;54.686;9.332;2024-02-21T21:07:12;99782.03;;;8.29
85840;BMP280;76322;54.686;9.332;2024-02-21T21:08:14;99780.53;;;8.28
85840;BMP280;76322;54.686;9.332;2024-02-21T21:09:16;99768.91;;;8.28
85840;BMP280;76322;54.686;9.332;2024-02-21T21:10:19;99773.63;;;8.27
85840;BMP280;76322;54.686;9.332;2024-02-21T21:11:22;99764.44;;;8.25
85840;BMP280;76322;54.686;9.332;2024-02-21T21:12:35;99779.03;;;8.27
85840;BMP280;76322;54.686;9.332;2024-02-21T21:13:37;99761.25;;;8.26
85840;BMP280;76322;54.686;9.332;2024-02-21T21:14:39;99757.31;;;8.27
